Bob Sikes Airport Crestview US
ICAO: KCEW
IATA: CEW
Category: Medium
Scheduled Services: No

Elevation: 213 ft
TransAlt. 18000 ft.

Airport Communications:
EGLIN APP/DEP:124.05
ASOS:119.275
GAINESVILLE RDO:122
CTAF/UNICOM:122.95

KCEW Zoom In..

If Map Doesn't Load, Click Here

Runways:

(A) RW 17 length 8004 ft width 150 ft
ILS 111.90 / hdg 171

(B) RW 35 length 8004 ft width 150 ft
---- / hdg 351

Location; KCEW
Day. 23 / Time. 07.53 Zulu
* Altimeter: 29.99
* Temperature: 21° c. 69.8°f.
* Wind from: 070° Speed 03 kn.
Dewpoint: 20° c.
Visibility: 8 Statute Miles.
Clouds: Clear (automated report).

KCEW 230753Z AUTO 07003KT 8SM CLR 21/20 A2999 RMK AO2 SLP154 T02110200


Wind From 070°
Speed 03 kn.

 
 
jpsmedia.com for Web Design worldairports.se 2018   terms of use